Time;durP1;ratioP1;P1;durP2;ratioP2;P2;SDS_P1;SDS_P2;PMS_P1;PMS_P2;Temp;Humidity;BMP_temperature;BMP_pressure;BME280_temperature;BME280_humidity;BME280_pressure;Samples;Min_cycle;Max_cycle;Signal;HPM_P1;HPM_P2
2024/03/02 01:41:55;;;;;;;1999.90;999.90;;;;;;;;;;6037891;22;20237;-67
2024/03/02 01:44:40;;;;;;;1999.90;999.90;;;;;;;;;;5059612;28;20302;-67
2024/03/02 01:47:25;;;;;;;1999.90;999.90;;;;;;;;;;5060950;28;20696;-68
2024/03/02 01:50:13;;;;;;;1999.90;999.90;;;;;;;;;;5064279;28;20209;-67
2024/03/02 01:52:58;;;;;;;1999.90;999.90;;;;;;;;;;5063546;28;20730;-68
2024/03/02 01:55:43;;;;;;;1999.90;999.90;;;;;;;;;;5065505;28;20248;-67
2024/03/02 01:58:30;;;;;;;1999.90;999.90;;;;;;;;;;5066238;28;20209;-68
2024/03/02 02:01:15;;;;;;;1999.90;999.90;;;;;;;;;;5065563;28;20216;-68
2024/03/02 02:04:00;;;;;;;1999.90;999.90;;;;;;;;;;5046179;28;20210;-69
2024/03/02 02:06:46;;;;;;;1999.90;999.90;;;;;;;;;;5047641;28;20213;-67
2024/03/02 02:09:31;;;;;;;1999.90;999.90;;;;;;;;;;5054013;28;20842;-68
2024/03/02 02:12:16;;;;;;;1999.90;999.90;;;;;;;;;;5064316;28;20271;-67
2024/03/02 02:15:02;;;;;;;1999.90;999.90;;;;;;;;;;5045309;28;20202;-68
2024/03/02 02:17:48;;;;;;;1999.90;999.90;;;;;;;;;;5048870;28;20253;-66
2024/03/02 02:20:33;;;;;;;1999.90;999.90;;;;;;;;;;5064235;28;20204;-67
2024/03/02 02:23:19;;;;;;;1999.90;999.90;;;;;;;;;;5056108;28;20264;-67
2024/03/02 02:26:04;;;;;;;1999.90;999.90;;;;;;;;;;5065928;28;20205;-68
2024/03/02 02:28:49;;;;;;;1999.90;999.90;;;;;;;;;;5046214;28;20419;-68
2024/03/02 02:31:38;;;;;;;1999.90;999.90;;;;;;;;;;5045248;28;20209;-68
2024/03/02 02:34:23;;;;;;;1999.90;999.90;;;;;;;;;;5045723;28;20202;-68
2024/03/02 02:37:08;;;;;;;1999.90;999.90;;;;;;;;;;5045819;28;20696;-68
2024/03/02 02:39:54;;;;;;;1999.90;999.90;;;;;;;;;;5057842;28;20292;-66
2024/03/02 02:42:40;;;;;;;1999.90;999.90;;;;;;;;;;5064997;28;20259;-68
2024/03/02 02:45:25;;;;;;;1999.90;999.90;;;;;;;;;;5066215;28;20696;-68
2024/03/02 02:48:10;;;;;;;1999.90;999.90;;;;;;;;;;5065682;28;20204;-67
2024/03/02 02:50:55;;;;;;;1999.90;999.90;;;;;;;;;;5066549;28;20228;-66
2024/03/02 02:53:40;;;;;;;1999.90;999.90;;;;;;;;;;5068749;28;20241;-68
2024/03/02 02:56:26;;;;;;;1999.90;999.90;;;;;;;;;;5064638;28;20268;-67
2024/03/02 02:59:11;;;;;;;1999.90;999.90;;;;;;;;;;5046755;28;20225;-68
2024/03/02 03:01:56;;;;;;;1999.90;999.90;;;;;;;;;;5057206;28;20232;-66
2024/03/02 03:04:41;;;;;;;1999.90;999.90;;;;;;;;;;5066448;28;20621;-68
2024/03/02 03:07:26;;;;;;;1999.90;999.90;;;;;;;;;;5067964;28;20209;-67
2024/03/02 03:10:11;;;;;;;1999.90;999.90;;;;;;;;;;5066819;28;20205;-67
2024/03/02 03:12:58;;;;;;;1999.90;999.90;;;;;;;;;;5067170;28;20284;-66
2024/03/02 03:15:43;;;;;;;1999.90;999.90;;;;;;;;;;5066113;28;20743;-68
2024/03/02 03:18:28;;;;;;;1999.90;999.90;;;;;;;;;;5048442;28;20238;-69
2024/03/02 03:21:13;;;;;;;1999.90;999.90;;;;;;;;;;5055647;28;20428;-67
2024/03/02 03:23:58;;;;;;;1999.90;999.90;;;;;;;;;;5067982;28;20212;-68
2024/03/02 03:26:43;;;;;;;1999.90;999.90;;;;;;;;;;5069466;28;20259;-68
2024/03/02 03:29:30;;;;;;;1999.90;999.90;;;;;;;;;;5069631;28;20668;-67
2024/03/02 03:32:16;;;;;;;1999.90;999.90;;;;;;;;;;5069481;28;20225;-67
2024/03/02 03:35:01;;;;;;;1999.90;999.90;;;;;;;;;;5062082;28;20283;-68
2024/03/02 03:37:46;;;;;;;1999.90;999.90;;;;;;;;;;5048565;28;20409;-69
2024/03/02 03:40:31;;;;;;;1999.90;999.90;;;;;;;;;;5051824;28;20590;-70
2024/03/02 03:43:16;;;;;;;1999.90;999.90;;;;;;;;;;5053259;28;20233;-69
2024/03/02 03:46:02;;;;;;;1999.90;999.90;;;;;;;;;;5053360;28;20584;-70
2024/03/02 03:48:48;;;;;;;1999.90;999.90;;;;;;;;;;5053362;28;20630;-70
2024/03/02 03:51:33;;;;;;;1999.90;999.90;;;;;;;;;;5053006;28;20256;-70
2024/03/02 03:54:18;;;;;;;1999.90;999.90;;;;;;;;;;5053415;28;20213;-70
2024/03/02 03:57:03;;;;;;;1999.90;999.90;;;;;;;;;;5053103;28;20205;-70
2024/03/02 03:59:48;;;;;;;1999.90;999.90;;;;;;;;;;5053117;28;20212;-69
2024/03/02 04:02:35;;;;;;;1999.90;999.90;;;;;;;;;;5052722;28;20233;-69
2024/03/02 04:05:20;;;;;;;1999.90;999.90;;;;;;;;;;5053154;28;20201;-69
2024/03/02 04:08:05;;;;;;;1999.90;999.90;;;;;;;;;;5052978;28;20788;-70
2024/03/02 04:10:50;;;;;;;1999.90;999.90;;;;;;;;;;5053067;28;20697;-70
2024/03/02 04:13:35;;;;;;;1999.90;999.90;;;;;;;;;;5052906;28;20227;-70
2024/03/02 04:16:20;;;;;;;1999.90;999.90;;;;;;;;;;5038043;28;20210;-69
2024/03/02 04:19:07;;;;;;;1999.90;999.90;;;;;;;;;;5032988;28;20218;-68
2024/03/02 04:21:52;;;;;;;1999.90;999.90;;;;;;;;;;5039842;28;20394;-67
2024/03/02 04:24:37;;;;;;;1999.90;999.90;;;;;;;;;;5052540;28;20687;-69
2024/03/02 04:27:21;;;;;;;1999.90;999.90;;;;;;;;;;5052186;28;20200;-70
2024/03/02 04:30:07;;;;;;;1999.90;999.90;;;;;;;;;;5032801;28;20248;-69
2024/03/02 04:32:52;;;;;;;1999.90;999.90;;;;;;;;;;5037771;28;20225;-69
2024/03/02 04:35:38;;;;;;;1999.90;999.90;;;;;;;;;;5051829;28;20221;-69
2024/03/02 04:38:23;;;;;;;1999.90;999.90;;;;;;;;;;5052341;28;20700;-70
2024/03/02 04:41:08;;;;;;;1999.90;999.90;;;;;;;;;;5052052;28;20212;-69
2024/03/02 04:43:53;;;;;;;1999.90;999.90;;;;;;;;;;5052544;28;20728;-70
2024/03/02 04:46:38;;;;;;;1999.90;999.90;;;;;;;;;;5052574;28;20749;-70
2024/03/02 04:49:23;;;;;;;1999.90;999.90;;;;;;;;;;5052310;28;20204;-69
2024/03/02 04:52:10;;;;;;;1999.90;999.90;;;;;;;;;;5036962;28;20609;-67
2024/03/02 04:57:58;;;;;;;1999.90;999.90;;;;;;;;;;5051116;28;20240;-69
2024/03/02 05:00:46;;;;;;;1999.90;999.90;;;;;;;;;;5032374;28;20574;-71
2024/03/02 05:03:31;;;;;;;1999.90;999.90;;;;;;;;;;5030613;28;20997;-70
2024/03/02 05:06:16;;;;;;;1999.90;999.90;;;;;;;;;;5032151;28;20212;-70
2024/03/02 05:09:02;;;;;;;1999.90;999.90;;;;;;;;;;5032005;28;20206;-70
2024/03/02 05:12:02;;;;;;;1999.90;999.90;;;;;;;;;;5031236;28;20222;-70
2024/03/02 05:14:47;;;;;;;1999.90;999.90;;;;;;;;;;5032214;28;20257;-70
2024/03/02 05:17:32;;;;;;;1999.90;999.90;;;;;;;;;;5031957;28;20209;-69
2024/03/02 05:20:17;;;;;;;1999.90;999.90;;;;;;;;;;5030762;28;20411;-70
2024/03/02 05:23:03;;;;;;;1999.90;999.90;;;;;;;;;;5031648;28;20726;-70
2024/03/02 05:25:49;;;;;;;1999.90;999.90;;;;;;;;;;5031824;28;20209;-69
2024/03/02 05:28:34;;;;;;;1999.90;999.90;;;;;;;;;;5032590;28;20580;-69
2024/03/02 05:31:19;;;;;;;1999.90;999.90;;;;;;;;;;5051327;28;20208;-70
2024/03/02 05:34:05;;;;;;;1999.90;999.90;;;;;;;;;;5051937;28;20199;-70
2024/03/02 05:36:50;;;;;;;1999.90;999.90;;;;;;;;;;5051455;28;20783;-70
2024/03/02 05:39:35;;;;;;;1999.90;999.90;;;;;;;;;;5051766;28;20252;-68
2024/03/02 05:42:21;;;;;;;1999.90;999.90;;;;;;;;;;5051315;28;20235;-69
2024/03/02 05:45:06;;;;;;;1999.90;999.90;;;;;;;;;;5051755;28;20217;-69
2024/03/02 05:47:52;;;;;;;1999.90;999.90;;;;;;;;;;5051845;28;20322;-70
2024/03/02 05:50:37;;;;;;;1999.90;999.90;;;;;;;;;;5051715;28;20335;-69
2024/03/02 05:53:21;;;;;;;1999.90;999.90;;;;;;;;;;5051256;28;20403;-69
2024/03/02 05:56:06;;;;;;;1999.90;999.90;;;;;;;;;;5051653;28;20203;-70
2024/03/02 05:59:06;;;;;;;1999.90;999.90;;;;;;;;;;5050721;28;20694;-69
2024/03/02 06:01:51;;;;;;;1999.90;999.90;;;;;;;;;;5050902;28;20224;-69
2024/03/02 06:04:36;;;;;;;1999.90;999.90;;;;;;;;;;5051272;28;20255;-69
2024/03/02 06:07:21;;;;;;;1999.90;999.90;;;;;;;;;;5051105;28;20577;-70
2024/03/02 06:10:07;;;;;;;1999.90;999.90;;;;;;;;;;5031359;28;20745;-70
2024/03/02 06:12:52;;;;;;;1999.90;999.90;;;;;;;;;;5037783;28;20808;-70
2024/03/02 06:15:38;;;;;;;1999.90;999.90;;;;;;;;;;5051468;28;20208;-69
2024/03/02 06:18:23;;;;;;;1999.90;999.90;;;;;;;;;;5050404;28;20309;-69
2024/03/02 06:21:09;;;;;;;1999.90;999.90;;;;;;;;;;5051149;28;20208;-69
2024/03/02 06:23:54;;;;;;;1999.90;999.90;;;;;;;;;;5054323;28;20232;-69
2024/03/02 06:26:39;;;;;;;1999.90;999.90;;;;;;;;;;5055054;28;20205;-70
2024/03/02 06:29:24;;;;;;;1999.90;999.90;;;;;;;;;;5054513;28;20596;-69
2024/03/02 06:32:11;;;;;;;1999.90;999.90;;;;;;;;;;5053792;28;20224;-70
2024/03/02 06:34:56;;;;;;;1999.90;999.90;;;;;;;;;;5054139;28;20262;-69
2024/03/02 06:37:40;;;;;;;1999.90;999.90;;;;;;;;;;5034882;28;20186;-69
2024/03/02 06:40:25;;;;;;;1999.90;999.90;;;;;;;;;;5043934;28;20209;-69
2024/03/02 06:43:12;;;;;;;1999.90;999.90;;;;;;;;;;5053557;28;20233;-69
2024/03/02 06:45:58;;;;;;;1999.90;999.90;;;;;;;;;;5054187;28;20287;-69
2024/03/02 06:48:44;;;;;;;1999.90;999.90;;;;;;;;;;5054640;28;20324;-70
2024/03/02 06:51:29;;;;;;;1999.90;999.90;;;;;;;;;;5053171;28;20412;-70
2024/03/02 06:54:14;;;;;;;1999.90;999.90;;;;;;;;;;5054007;28;20202;-69
2024/03/02 06:56:59;;;;;;;1999.90;999.90;;;;;;;;;;5054520;28;20633;-69
2024/03/02 06:59:44;;;;;;;1999.90;999.90;;;;;;;;;;5053580;28;20220;-70
2024/03/02 07:02:29;;;;;;;1999.90;999.90;;;;;;;;;;5053647;28;20223;-69
2024/03/02 07:05:15;;;;;;;1999.90;999.90;;;;;;;;;;5052276;28;20724;-69
2024/03/02 07:08:01;;;;;;;1999.90;999.90;;;;;;;;;;5053393;28;20208;-70
2024/03/02 07:10:46;;;;;;;1999.90;999.90;;;;;;;;;;5054185;28;20217;-70
2024/03/02 07:13:31;;;;;;;1999.90;999.90;;;;;;;;;;5053372;28;20239;-70
2024/03/02 07:16:29;;;;;;;1999.90;999.90;;;;;;;;;;5053108;28;20229;-70
2024/03/02 07:19:14;;;;;;;1999.90;999.90;;;;;;;;;;5052781;28;20198;-69
2024/03/02 07:22:00;;;;;;;1999.90;999.90;;;;;;;;;;5052748;28;20298;-69
2024/03/02 07:24:46;;;;;;;1999.90;999.90;;;;;;;;;;5053924;28;20700;-69
2024/03/02 07:27:31;;;;;;;1999.90;999.90;;;;;;;;;;5054012;28;20213;-70
2024/03/02 07:30:17;;;;;;;1999.90;999.90;;;;;;;;;;5052363;28;20209;-70
2024/03/02 07:33:02;;;;;;;1999.90;999.90;;;;;;;;;;5033639;28;20218;-69
2024/03/02 07:35:48;;;;;;;1999.90;999.90;;;;;;;;;;5033707;28;20353;-70
2024/03/02 07:38:35;;;;;;;1999.90;999.90;;;;;;;;;;5033846;28;20214;-71
2024/03/02 07:41:20;;;;;;;1999.90;999.90;;;;;;;;;;5040335;28;20209;-71
2024/03/02 07:44:05;;;;;;;1999.90;999.90;;;;;;;;;;5053442;28;20302;-71
2024/03/02 07:46:50;;;;;;;1999.90;999.90;;;;;;;;;;5053624;28;20204;-71
2024/03/02 07:49:35;;;;;;;1999.90;999.90;;;;;;;;;;5053259;28;20309;-71
2024/03/02 07:52:20;;;;;;;1999.90;999.90;;;;;;;;;;5053140;28;20225;-71
2024/03/02 07:55:07;;;;;;;1999.90;999.90;;;;;;;;;;5052061;28;20205;-71
2024/03/02 07:57:51;;;;;;;1999.90;999.90;;;;;;;;;;5033203;28;20341;-71
2024/03/02 08:00:36;;;;;;;1999.90;999.90;;;;;;;;;;5042122;28;20412;-71
2024/03/02 08:03:21;;;;;;;1999.90;999.90;;;;;;;;;;5052940;28;20353;-70
2024/03/02 08:06:06;;;;;;;1999.90;999.90;;;;;;;;;;5053233;28;20578;-71
2024/03/02 08:08:51;;;;;;;1999.90;999.90;;;;;;;;;;5053132;28;20290;-71
2024/03/02 08:11:38;;;;;;;1999.90;999.90;;;;;;;;;;5052641;28;20549;-71
2024/03/02 08:14:23;;;;;;;1999.90;999.90;;;;;;;;;;5032879;28;20574;-71
2024/03/02 08:17:09;;;;;;;1999.90;999.90;;;;;;;;;;5033072;28;20215;-71
2024/03/02 08:19:54;;;;;;;1999.90;999.90;;;;;;;;;;5033051;28;20205;-70
2024/03/02 08:22:39;;;;;;;1999.90;999.90;;;;;;;;;;5032494;28;20278;-71
2024/03/02 08:25:24;;;;;;;1999.90;999.90;;;;;;;;;;5032981;28;20207;-70
2024/03/02 08:28:10;;;;;;;1999.90;999.90;;;;;;;;;;5032870;28;20210;-71
2024/03/02 08:30:56;;;;;;;1999.90;999.90;;;;;;;;;;5032660;28;20210;-70
2024/03/02 08:33:41;;;;;;;1999.90;999.90;;;;;;;;;;5031902;28;20403;-71
2024/03/02 08:36:27;;;;;;;1999.90;999.90;;;;;;;;;;5032667;28;20222;-70
2024/03/02 08:39:15;;;;;;;1999.90;999.90;;;;;;;;;;5032845;28;20210;-70
2024/03/02 08:41:59;;;;;;;1999.90;999.90;;;;;;;;;;5032358;28;20605;-70
2024/03/02 08:44:46;;;;;;;1999.90;999.90;;;;;;;;;;5031979;28;20237;-71
2024/03/02 08:47:31;;;;;;;1999.90;999.90;;;;;;;;;;5032271;28;20203;-71
2024/03/02 08:50:16;;;;;;;1999.90;999.90;;;;;;;;;;5049931;28;20225;-71
2024/03/02 08:53:01;;;;;;;1999.90;999.90;;;;;;;;;;5050709;28;20956;-71
2024/03/02 08:55:46;;;;;;;1999.90;999.90;;;;;;;;;;5052082;28;20197;-71
2024/03/02 08:58:31;;;;;;;1999.90;999.90;;;;;;;;;;5052322;28;20705;-71
2024/03/02 09:01:18;;;;;;;1999.90;999.90;;;;;;;;;;5052133;28;20209;-70
2024/03/02 09:04:03;;;;;;;1999.90;999.90;;;;;;;;;;5051950;28;20279;-70
2024/03/02 09:06:48;;;;;;;1999.90;999.90;;;;;;;;;;5048912;28;20213;-69
2024/03/02 09:09:33;;;;;;;1999.90;999.90;;;;;;;;;;5046290;28;20259;-70
2024/03/02 09:12:18;;;;;;;1999.90;999.90;;;;;;;;;;5043736;28;20233;-70
2024/03/02 09:15:03;;;;;;;1999.90;999.90;;;;;;;;;;5052495;28;20227;-70
2024/03/02 09:17:50;;;;;;;1999.90;999.90;;;;;;;;;;5051221;28;20308;-70
2024/03/02 09:20:34;;;;;;;1999.90;999.90;;;;;;;;;;5046151;28;20205;-70
2024/03/02 09:23:19;;;;;;;1999.90;999.90;;;;;;;;;;5050550;28;20295;-70
2024/03/02 09:26:04;;;;;;;1999.90;999.90;;;;;;;;;;5050126;28;20420;-69
2024/03/02 09:28:49;;;;;;;1999.90;999.90;;;;;;;;;;5048280;28;20210;-70
2024/03/02 09:31:39;;;;;;;1999.90;999.90;;;;;;;;;;5051745;28;20867;-70
2024/03/02 09:34:26;;;;;;;1999.90;999.90;;;;;;;;;;5051887;28;20202;-70
2024/03/02 09:37:11;;;;;;;1999.90;999.90;;;;;;;;;;5051760;28;20204;-71
2024/03/02 09:39:56;;;;;;;1999.90;999.90;;;;;;;;;;5050433;28;20205;-70
2024/03/02 09:42:41;;;;;;;1999.90;999.90;;;;;;;;;;5047762;28;20240;-70
2024/03/02 09:45:26;;;;;;;1999.90;999.90;;;;;;;;;;5031318;28;21013;-71
2024/03/02 09:48:11;;;;;;;1999.90;999.90;;;;;;;;;;5036710;28;20214;-71
2024/03/02 09:50:58;;;;;;;1999.90;999.90;;;;;;;;;;5031252;28;20205;-68
2024/03/02 09:53:43;;;;;;;1999.90;999.90;;;;;;;;;;5031856;28;20741;-71
2024/03/02 09:56:28;;;;;;;1999.90;999.90;;;;;;;;;;5031644;28;20209;-71
2024/03/02 09:59:16;;;;;;;1999.90;999.90;;;;;;;;;;5044312;28;20205;-71
2024/03/02 10:02:01;;;;;;;1999.90;999.90;;;;;;;;;;5055255;28;20307;-70
2024/03/02 10:04:46;;;;;;;1999.90;999.90;;;;;;;;;;5055272;28;20728;-71
2024/03/02 10:07:33;;;;;;;1999.90;999.90;;;;;;;;;;5055422;28;20205;-71
2024/03/02 10:10:18;;;;;;;1999.90;999.90;;;;;;;;;;5055414;28;20229;-71
2024/03/02 10:13:05;;;;;;;1999.90;999.90;;;;;;;;;;5043797;28;20313;-71
2024/03/02 10:15:50;;;;;;;1999.90;999.90;;;;;;;;;;5044132;28;20578;-71
2024/03/02 10:18:35;;;;;;;1999.90;999.90;;;;;;;;;;5042343;28;20991;-68
2024/03/02 10:21:20;;;;;;;1999.90;999.90;;;;;;;;;;5043913;28;20225;-70
2024/03/02 10:24:08;;;;;;;1999.90;999.90;;;;;;;;;;5038217;28;20221;-70
2024/03/02 10:26:53;;;;;;;1999.90;999.90;;;;;;;;;;5040953;28;20206;-71
2024/03/02 10:29:40;;;;;;;1999.90;999.90;;;;;;;;;;5044707;28;20213;-71
2024/03/02 10:32:25;;;;;;;1999.90;999.90;;;;;;;;;;5037408;28;20241;-71
2024/03/02 10:35:10;;;;;;;1999.90;999.90;;;;;;;;;;5035942;28;20193;-70
2024/03/02 10:37:56;;;;;;;1999.90;999.90;;;;;;;;;;5044588;28;20398;-71
2024/03/02 10:40:43;;;;;;;1999.90;999.90;;;;;;;;;;5050500;28;20211;-71
2024/03/02 10:43:28;;;;;;;1999.90;999.90;;;;;;;;;;5049479;28;20238;-70
2024/03/02 10:46:14;;;;;;;1999.90;999.90;;;;;;;;;;5048879;28;20288;-71
2024/03/02 10:48:59;;;;;;;1999.90;999.90;;;;;;;;;;5037381;28;20314;-71
2024/03/02 10:51:44;;;;;;;1999.90;999.90;;;;;;;;;;5036103;28;20236;-69
2024/03/02 10:54:35;;;;;;;1999.90;999.90;;;;;;;;;;5048656;28;20202;-71
2024/03/02 10:57:22;;;;;;;1999.90;999.90;;;;;;;;;;5043667;28;20215;-71
2024/03/02 11:00:14;;;;;;;1999.90;999.90;;;;;;;;;;5037818;28;20198;-71
2024/03/02 11:03:05;;;;;;;1999.90;999.90;;;;;;;;;;5047184;28;20226;-72
2024/03/02 11:05:51;;;;;;;1999.90;999.90;;;;;;;;;;5041352;28;20195;-71
2024/03/02 11:08:39;;;;;;;1999.90;999.90;;;;;;;;;;5037807;28;20478;-71
2024/03/02 11:11:29;;;;;;;1999.90;999.90;;;;;;;;;;5047014;28;20202;-72
2024/03/02 11:14:17;;;;;;;1999.90;999.90;;;;;;;;;;5043367;28;20213;-71
2024/03/02 11:17:05;;;;;;;1999.90;999.90;;;;;;;;;;5041295;28;20201;-71
2024/03/02 11:19:50;;;;;;;1999.90;999.90;;;;;;;;;;5047375;28;20209;-71
2024/03/02 11:22:37;;;;;;;1999.90;999.90;;;;;;;;;;5039201;28;20736;-71
2024/03/02 11:25:26;;;;;;;1999.90;999.90;;;;;;;;;;5042773;28;20297;-72
2024/03/02 11:28:11;;;;;;;1999.90;999.90;;;;;;;;;;5036870;28;20925;-72
2024/03/02 11:30:57;;;;;;;1999.90;999.90;;;;;;;;;;5046585;28;20204;-70
2024/03/02 11:33:42;;;;;;;1999.90;999.90;;;;;;;;;;5038494;28;20327;-71
2024/03/02 11:36:27;;;;;;;1999.90;999.90;;;;;;;;;;5040417;28;20794;-71
2024/03/02 11:39:12;;;;;;;1999.90;999.90;;;;;;;;;;5045619;28;20205;-71
2024/03/02 11:41:57;;;;;;;1999.90;999.90;;;;;;;;;;5038842;28;20626;-71
2024/03/02 11:44:44;;;;;;;1999.90;999.90;;;;;;;;;;5041262;28;20709;-71
2024/03/02 11:47:32;;;;;;;1999.90;999.90;;;;;;;;;;5039529;28;20231;-71
2024/03/02 11:50:29;;;;;;;1999.90;999.90;;;;;;;;;;5038916;28;20210;-70
2024/03/02 11:53:14;;;;;;;1999.90;999.90;;;;;;;;;;5039744;28;20226;-70
2024/03/02 11:55:59;;;;;;;1999.90;999.90;;;;;;;;;;5038255;28;20416;-71
2024/03/02 11:58:45;;;;;;;1999.90;999.90;;;;;;;;;;5046012;28;20219;-72
2024/03/02 12:01:30;;;;;;;1999.90;999.90;;;;;;;;;;5037982;28;20319;-71
2024/03/02 12:04:16;;;;;;;1999.90;999.90;;;;;;;;;;5040231;28;20221;-70
2024/03/02 12:07:02;;;;;;;1999.90;999.90;;;;;;;;;;5045710;28;20205;-70
2024/03/02 12:09:47;;;;;;;1999.90;999.90;;;;;;;;;;5040579;28;20700;-71
2024/03/02 12:12:32;;;;;;;1999.90;999.90;;;;;;;;;;5034994;28;20237;-70
2024/03/02 12:15:17;;;;;;;1999.90;999.90;;;;;;;;;;5045048;28;20580;-71
2024/03/02 12:18:02;;;;;;;1999.90;999.90;;;;;;;;;;5039468;28;20437;-71
2024/03/02 12:20:52;;;;;;;1999.90;999.90;;;;;;;;;;5039526;28;20237;-71
2024/03/02 12:23:37;;;;;;;1999.90;999.90;;;;;;;;;;5037820;28;20224;-71
2024/03/02 12:26:23;;;;;;;1999.90;999.90;;;;;;;;;;5040894;28;20204;-71
2024/03/02 12:29:08;;;;;;;1999.90;999.90;;;;;;;;;;5040310;28;20330;-72
2024/03/02 12:31:53;;;;;;;1999.90;999.90;;;;;;;;;;5038689;28;20246;-72
2024/03/02 12:34:39;;;;;;;1999.90;999.90;;;;;;;;;;5044996;28;20221;-71
2024/03/02 12:37:27;;;;;;;1999.90;999.90;;;;;;;;;;5038342;28;20282;-73
2024/03/02 12:40:12;;;;;;;1999.90;999.90;;;;;;;;;;5037992;28;20270;-72
2024/03/02 12:42:57;;;;;;;1999.90;999.90;;;;;;;;;;5041456;28;20328;-73
2024/03/02 12:45:42;;;;;;;1999.90;999.90;;;;;;;;;;5035843;28;20234;-72
2024/03/02 12:48:27;;;;;;;1999.90;999.90;;;;;;;;;;5036200;28;20422;-72
2024/03/02 12:51:12;;;;;;;1999.90;999.90;;;;;;;;;;5039665;28;20208;-71
2024/03/02 12:53:59;;;;;;;1999.90;999.90;;;;;;;;;;5044814;28;20207;-71
2024/03/02 12:56:46;;;;;;;1999.90;999.90;;;;;;;;;;5045845;28;20208;-71
2024/03/02 12:59:31;;;;;;;1999.90;999.90;;;;;;;;;;5037845;28;20247;-72
2024/03/02 13:02:18;;;;;;;1999.90;999.90;;;;;;;;;;5045487;28;20225;-71
2024/03/02 13:05:03;;;;;;;1999.90;999.90;;;;;;;;;;5037316;28;20714;-71
2024/03/02 13:07:48;;;;;;;1999.90;999.90;;;;;;;;;;5036120;28;20423;-70
2024/03/02 13:10:34;;;;;;;1999.90;999.90;;;;;;;;;;5035472;28;20190;-72
2024/03/02 13:13:19;;;;;;;1999.90;999.90;;;;;;;;;;5035381;28;20606;-71
2024/03/02 13:16:06;;;;;;;1999.90;999.90;;;;;;;;;;5040837;28;20340;-72
2024/03/02 13:18:51;;;;;;;1999.90;999.90;;;;;;;;;;5035416;28;20217;-71
2024/03/02 13:21:36;;;;;;;1999.90;999.90;;;;;;;;;;5040881;28;20584;-72
2024/03/02 13:24:21;;;;;;;1999.90;999.90;;;;;;;;;;5038088;28;20228;-71
2024/03/02 13:27:07;;;;;;;1999.90;999.90;;;;;;;;;;5041898;28;20205;-70
2024/03/02 13:29:52;;;;;;;1999.90;999.90;;;;;;;;;;5040152;28;20196;-72
2024/03/02 13:32:37;;;;;;;1999.90;999.90;;;;;;;;;;5039862;28;20738;-71
2024/03/02 13:35:22;;;;;;;1999.90;999.90;;;;;;;;;;5032556;28;20208;-70
2024/03/02 13:38:07;;;;;;;1999.90;999.90;;;;;;;;;;5035035;28;20389;-72
2024/03/02 13:40:52;;;;;;;1999.90;999.90;;;;;;;;;;5031722;28;20599;-72
2024/03/02 13:43:39;;;;;;;1999.90;999.90;;;;;;;;;;5033755;28;20348;-71
2024/03/02 13:46:24;;;;;;;1999.90;999.90;;;;;;;;;;5047723;28;20567;-72
2024/03/02 13:49:09;;;;;;;1999.90;999.90;;;;;;;;;;5043261;28;20362;-70
2024/03/02 13:51:55;;;;;;;1999.90;999.90;;;;;;;;;;5046050;28;20728;-71
2024/03/02 13:54:40;;;;;;;1999.90;999.90;;;;;;;;;;5036474;28;20584;-70
2024/03/02 13:57:25;;;;;;;1999.90;999.90;;;;;;;;;;5043556;28;20202;-70
2024/03/02 14:00:12;;;;;;;1999.90;999.90;;;;;;;;;;5050366;28;20433;-72
2024/03/02 14:02:57;;;;;;;1999.90;999.90;;;;;;;;;;5051096;28;20283;-71
2024/03/02 14:05:43;;;;;;;1999.90;999.90;;;;;;;;;;5051264;28;20732;-69
2024/03/02 14:08:29;;;;;;;1999.90;999.90;;;;;;;;;;5051563;28;20681;-71
2024/03/02 14:11:15;;;;;;;1999.90;999.90;;;;;;;;;;5046268;28;20315;-71
2024/03/02 14:14:00;;;;;;;1999.90;999.90;;;;;;;;;;5051234;28;20211;-71
2024/03/02 14:16:46;;;;;;;1999.90;999.90;;;;;;;;;;5051552;28;20204;-70
2024/03/02 14:19:32;;;;;;;1999.90;999.90;;;;;;;;;;5051054;28;20287;-71
2024/03/02 14:22:17;;;;;;;1999.90;999.90;;;;;;;;;;5049519;28;20348;-71
2024/03/02 14:25:02;;;;;;;1999.90;999.90;;;;;;;;;;5050396;28;20292;-70
2024/03/02 14:27:47;;;;;;;1999.90;999.90;;;;;;;;;;5050678;28;20301;-70
2024/03/02 14:30:33;;;;;;;1999.90;999.90;;;;;;;;;;5050612;28;20200;-71
2024/03/02 14:33:20;;;;;;;1999.90;999.90;;;;;;;;;;5049710;28;20405;-71
2024/03/02 14:36:06;;;;;;;1999.90;999.90;;;;;;;;;;5050332;28;20201;-71
2024/03/02 14:38:51;;;;;;;1999.90;999.90;;;;;;;;;;5050339;28;20713;-71
2024/03/02 14:41:36;;;;;;;1999.90;999.90;;;;;;;;;;5050413;28;20309;-72
2024/03/02 14:44:21;;;;;;;1999.90;999.90;;;;;;;;;;5052042;28;20271;-72
2024/03/02 14:47:07;;;;;;;1999.90;999.90;;;;;;;;;;5054526;28;20271;-71
2024/03/02 14:49:53;;;;;;;1999.90;999.90;;;;;;;;;;5054536;28;20200;-70
2024/03/02 14:52:38;;;;;;;1999.90;999.90;;;;;;;;;;5052362;28;20412;-71
2024/03/02 14:55:23;;;;;;;1999.90;999.90;;;;;;;;;;5054251;28;20738;-70
2024/03/02 14:58:09;;;;;;;1999.90;999.90;;;;;;;;;;5054571;28;20206;-70
2024/03/02 15:00:54;;;;;;;1999.90;999.90;;;;;;;;;;5054482;28;20743;-70
2024/03/02 15:03:39;;;;;;;1999.90;999.90;;;;;;;;;;5053907;28;20229;-70
2024/03/02 15:06:25;;;;;;;1999.90;999.90;;;;;;;;;;5054361;28;20716;-70
2024/03/02 15:09:12;;;;;;;1999.90;999.90;;;;;;;;;;5054270;28;20224;-68
2024/03/02 15:11:57;;;;;;;1999.90;999.90;;;;;;;;;;5053788;28;20318;-69
2024/03/02 15:14:46;;;;;;;1999.90;999.90;;;;;;;;;;5054437;28;20188;-69
2024/03/02 15:17:31;;;;;;;1999.90;999.90;;;;;;;;;;5054256;28;20211;-70
2024/03/02 15:20:17;;;;;;;1999.90;999.90;;;;;;;;;;5034213;28;20213;-69
2024/03/02 15:23:03;;;;;;;1999.90;999.90;;;;;;;;;;5033763;28;20327;-68
2024/03/02 15:25:48;;;;;;;1999.90;999.90;;;;;;;;;;5032739;28;20430;-69
2024/03/02 15:28:33;;;;;;;1999.90;999.90;;;;;;;;;;5041941;28;20224;-68
2024/03/02 15:31:18;;;;;;;1999.90;999.90;;;;;;;;;;5053989;28;20211;-69
2024/03/02 15:34:03;;;;;;;1999.90;999.90;;;;;;;;;;5054404;28;20216;-70
2024/03/02 15:36:48;;;;;;;1999.90;999.90;;;;;;;;;;5054689;28;20205;-69
2024/03/02 15:39:34;;;;;;;1999.90;999.90;;;;;;;;;;5053861;28;20211;-70
2024/03/02 15:42:23;;;;;;;1999.90;999.90;;;;;;;;;;5049926;28;20237;-69
2024/03/02 15:45:08;;;;;;;1999.90;999.90;;;;;;;;;;5051389;28;20470;-70
2024/03/02 15:47:53;;;;;;;1999.90;999.90;;;;;;;;;;5053687;28;20221;-68
2024/03/02 15:50:38;;;;;;;1999.90;999.90;;;;;;;;;;5053480;28;20220;-68
2024/03/02 15:53:23;;;;;;;1999.90;999.90;;;;;;;;;;5035822;28;20331;-68
2024/03/02 15:56:09;;;;;;;1999.90;999.90;;;;;;;;;;5033203;28;20208;-69
2024/03/02 15:58:54;;;;;;;1999.90;999.90;;;;;;;;;;5043106;28;20301;-70
2024/03/02 16:01:41;;;;;;;1999.90;999.90;;;;;;;;;;5053244;28;20314;-69
2024/03/02 16:04:26;;;;;;;1999.90;999.90;;;;;;;;;;5053276;28;20294;-69
2024/03/02 16:07:11;;;;;;;1999.90;999.90;;;;;;;;;;5032961;28;20639;-70
2024/03/02 16:09:56;;;;;;;1999.90;999.90;;;;;;;;;;5033144;28;20205;-70
2024/03/02 16:12:43;;;;;;;1999.90;999.90;;;;;;;;;;5033046;28;20237;-70
2024/03/02 16:15:28;;;;;;;1999.90;999.90;;;;;;;;;;5038699;28;20212;-70
2024/03/02 16:18:13;;;;;;;1999.90;999.90;;;;;;;;;;5052864;28;20213;-70
2024/03/02 16:20:58;;;;;;;1999.90;999.90;;;;;;;;;;5052924;28;20571;-70
2024/03/02 16:23:43;;;;;;;1999.90;999.90;;;;;;;;;;5052604;28;20232;-69
2024/03/02 16:26:28;;;;;;;1999.90;999.90;;;;;;;;;;5052448;28;20240;-70
2024/03/02 16:29:14;;;;;;;1999.90;999.90;;;;;;;;;;5052576;28;20212;-69
2024/03/02 16:32:00;;;;;;;1999.90;999.90;;;;;;;;;;5052564;28;20269;-69
2024/03/02 16:34:45;;;;;;;1999.90;999.90;;;;;;;;;;5052772;28;20213;-70
2024/03/02 16:37:30;;;;;;;1999.90;999.90;;;;;;;;;;5050087;28;20564;-69
2024/03/02 16:40:15;;;;;;;1999.90;999.90;;;;;;;;;;5052713;28;20290;-70
2024/03/02 16:43:00;;;;;;;1999.90;999.90;;;;;;;;;;5051784;28;20350;-70
2024/03/02 16:45:46;;;;;;;1999.90;999.90;;;;;;;;;;5051995;28;20220;-70
2024/03/02 16:48:31;;;;;;;1999.90;999.90;;;;;;;;;;5032860;28;20217;-70
2024/03/02 16:51:16;;;;;;;1999.90;999.90;;;;;;;;;;5051166;28;20215;-70
2024/03/02 16:54:02;;;;;;;1999.90;999.90;;;;;;;;;;5051475;28;20220;-70
2024/03/02 16:56:47;;;;;;;1999.90;999.90;;;;;;;;;;5052364;28;20623;-69
2024/03/02 16:59:32;;;;;;;1999.90;999.90;;;;;;;;;;5052367;28;20212;-70
2024/03/02 17:02:19;;;;;;;1999.90;999.90;;;;;;;;;;5051978;28;20270;-71
2024/03/02 17:05:05;;;;;;;1999.90;999.90;;;;;;;;;;5052170;28;20311;-71
2024/03/02 17:07:50;;;;;;;1999.90;999.90;;;;;;;;;;5051541;28;20273;-71